createdAt,value
2019-03-29T00:01:53.621Z,7.37
2019-03-29T00:04:23.531Z,6.40
2019-03-29T00:06:53.434Z,6.73
2019-03-29T00:09:23.356Z,7.80
2019-03-29T00:11:53.251Z,8.30
2019-03-29T00:14:23.541Z,6.73
2019-03-29T00:16:53.588Z,6.90
2019-03-29T00:19:23.511Z,8.17
2019-03-29T00:21:53.406Z,8.23
2019-03-29T00:24:23.367Z,8.00
2019-03-29T00:26:53.429Z,8.67
2019-03-29T00:29:23.273Z,7.30
2019-03-29T00:31:53.199Z,6.73
2019-03-29T00:34:23.109Z,6.30
2019-03-29T00:36:53.008Z,7.40
2019-03-29T00:39:22.965Z,8.00
2019-03-29T00:41:52.860Z,7.73
2019-03-29T00:44:22.783Z,6.10
2019-03-29T00:46:52.684Z,7.40
2019-03-29T00:49:22.602Z,6.27
2019-03-29T00:51:52.484Z,5.70
2019-03-29T00:54:22.401Z,5.67
2019-03-29T00:56:52.346Z,4.67
2019-03-29T00:59:22.274Z,4.30
2019-03-29T01:01:52.337Z,4.23
2019-03-29T01:04:22.934Z,5.30
2019-03-29T01:06:52.821Z,5.20
2019-03-29T01:09:22.738Z,5.30
2019-03-29T01:11:52.620Z,4.50
2019-03-29T01:14:22.532Z,4.00
2019-03-29T01:16:53.195Z,4.63
2019-03-29T01:19:23.836Z,4.97
2019-03-29T01:21:53.730Z,6.50
2019-03-29T01:24:23.682Z,7.00
2019-03-29T01:26:53.573Z,6.73
2019-03-29T01:29:23.502Z,6.60
2019-03-29T01:31:53.383Z,7.60
2019-03-29T01:34:23.357Z,6.90
2019-03-29T01:36:53.837Z,7.40
2019-03-29T01:39:23.876Z,7.83
2019-03-29T01:41:53.764Z,7.30
2019-03-29T01:44:23.692Z,6.30
2019-03-29T01:46:53.584Z,5.40
2019-03-29T01:49:23.503Z,5.40
2019-03-29T01:51:54.033Z,5.70
2019-03-29T01:54:24.169Z,4.90
2019-03-29T01:56:54.055Z,5.20
2019-03-29T01:59:24.055Z,6.57
2019-03-29T02:01:54.948Z,4.13
2019-03-29T02:04:24.964Z,3.90
2019-03-29T02:06:54.860Z,4.83
2019-03-29T02:09:24.819Z,5.90
2019-03-29T02:11:54.708Z,4.77
2019-03-29T02:14:24.624Z,4.40
2019-03-29T02:16:55.857Z,4.97
2019-03-29T02:19:25.935Z,5.33
2019-03-29T02:21:55.828Z,5.03
2019-03-29T02:24:25.879Z,4.90
2019-03-29T02:26:55.754Z,4.67
2019-03-29T02:29:25.667Z,5.53
2019-03-29T02:31:56.632Z,5.13
2019-03-29T02:34:26.998Z,4.80
2019-03-29T02:36:56.899Z,6.60
2019-03-29T02:39:27.285Z,5.33
2019-03-29T02:41:57.278Z,5.13
2019-03-29T02:44:27.154Z,4.77
2019-03-29T02:46:57.072Z,5.13
2019-03-29T02:49:26.964Z,6.77
2019-03-29T02:51:56.881Z,6.97
2019-03-29T02:54:26.794Z,5.63
2019-03-29T02:56:56.707Z,5.47
2019-03-29T02:59:26.613Z,6.27
2019-03-29T03:01:56.520Z,5.80
2019-03-29T03:04:26.404Z,4.43
2019-03-29T03:06:57.019Z,5.60
2019-03-29T03:09:26.910Z,5.87
2019-03-29T03:11:56.816Z,6.37
2019-03-29T03:14:26.710Z,7.40
2019-03-29T03:16:56.624Z,6.20
2019-03-29T03:19:26.527Z,6.27
2019-03-29T03:21:56.438Z,6.80
2019-03-29T03:24:26.352Z,6.10
2019-03-29T03:26:56.253Z,6.50
2019-03-29T03:29:26.205Z,5.47
2019-03-29T03:31:56.279Z,8.50
2019-03-29T03:34:26.257Z,5.20
2019-03-29T03:36:56.173Z,6.00
2019-03-29T03:39:31.946Z,5.97
2019-03-29T03:41:57.643Z,5.40
2019-03-29T03:44:27.538Z,5.07
2019-03-29T03:46:57.457Z,4.10
2019-03-29T03:49:27.357Z,6.03
2019-03-29T03:51:57.270Z,5.80
2019-03-29T03:54:27.174Z,4.50
2019-03-29T03:56:57.277Z,4.03
2019-03-29T03:59:29.033Z,4.20
2019-03-29T04:01:58.944Z,4.73
2019-03-29T04:04:28.837Z,4.20
2019-03-29T04:06:58.796Z,5.53
2019-03-29T04:09:28.691Z,4.67
2019-03-29T04:11:58.603Z,4.87
2019-03-29T04:14:28.492Z,4.33
2019-03-29T04:16:58.417Z,4.50
2019-03-29T04:19:28.289Z,7.10
2019-03-29T04:21:58.300Z,8.80
2019-03-29T04:24:28.226Z,7.40
2019-03-29T04:26:58.132Z,8.20
2019-03-29T04:29:28.033Z,8.67
2019-03-29T04:31:57.955Z,8.73
2019-03-29T04:34:27.845Z,9.13
2019-03-29T04:36:57.767Z,8.60
2019-03-29T04:39:27.663Z,8.30
2019-03-29T04:41:57.584Z,10.63
2019-03-29T04:44:36.759Z,9.07
2019-03-29T04:47:06.657Z,9.77
2019-03-29T04:49:36.531Z,9.70
2019-03-29T04:52:06.431Z,10.93
2019-03-29T04:54:36.303Z,8.73
2019-03-29T04:57:06.199Z,9.60
2019-03-29T04:59:36.071Z,9.20
2019-03-29T05:02:05.991Z,6.33
2019-03-29T05:04:35.855Z,7.77
2019-03-29T05:07:05.759Z,8.43
2019-03-29T05:09:35.631Z,9.17
2019-03-29T05:12:05.545Z,8.97
2019-03-29T05:14:35.415Z,9.83
2019-03-29T05:17:05.328Z,9.00
2019-03-29T05:19:35.195Z,9.57
2019-03-29T05:22:05.101Z,8.87
2019-03-29T05:24:35.002Z,8.13
2019-03-29T05:27:04.879Z,7.30
2019-03-29T05:29:34.775Z,9.43
2019-03-29T05:32:04.644Z,9.27
2019-03-29T05:34:34.550Z,9.00
2019-03-29T05:37:04.424Z,11.47
2019-03-29T05:39:34.319Z,13.40
2019-03-29T05:42:04.195Z,14.17
2019-03-29T05:44:34.091Z,13.63
2019-03-29T05:47:03.894Z,11.77
2019-03-29T05:49:33.877Z,11.67
2019-03-29T05:52:03.748Z,11.77
2019-03-29T05:54:33.692Z,10.17
2019-03-29T05:57:03.563Z,13.10
2019-03-29T05:59:33.463Z,12.23
2019-03-29T06:02:03.339Z,12.17
2019-03-29T06:04:33.235Z,11.40
2019-03-29T06:07:03.116Z,11.43
2019-03-29T06:09:34.992Z,12.57
2019-03-29T06:12:04.536Z,13.80
2019-03-29T06:14:34.439Z,13.23
2019-03-29T06:17:04.314Z,12.63
2019-03-29T06:19:34.611Z,13.40
2019-03-29T06:22:04.478Z,13.40
2019-03-29T06:24:34.394Z,12.97
2019-03-29T06:27:04.267Z,10.80
2019-03-29T06:29:34.164Z,12.80
2019-03-29T06:32:04.039Z,12.57
2019-03-29T06:34:33.936Z,13.00
2019-03-29T06:37:04.307Z,12.53
2019-03-29T06:39:34.399Z,13.00
2019-03-29T06:42:04.270Z,13.60
2019-03-29T06:44:34.175Z,13.30
2019-03-29T06:47:04.067Z,12.53
2019-03-29T06:49:34.040Z,14.10
2019-03-29T06:52:03.847Z,12.10
2019-03-29T06:54:33.747Z,13.30
2019-03-29T06:57:03.627Z,12.73
2019-03-29T06:59:33.543Z,12.87
2019-03-29T07:02:03.423Z,12.83
2019-03-29T07:04:33.323Z,12.80
2019-03-29T07:07:03.204Z,10.93
2019-03-29T07:09:33.105Z,11.93
2019-03-29T07:12:02.979Z,12.50
2019-03-29T07:14:32.883Z,10.73
2019-03-29T07:17:02.790Z,11.40
2019-03-29T07:19:32.687Z,10.73
2019-03-29T07:22:02.571Z,10.20
2019-03-29T07:24:32.496Z,10.43
2019-03-29T07:27:02.389Z,10.67
2019-03-29T07:29:32.284Z,11.23
2019-03-29T07:32:02.171Z,11.13
2019-03-29T07:34:32.071Z,10.50
2019-03-29T07:37:01.954Z,10.47
2019-03-29T07:39:31.862Z,10.33
2019-03-29T07:42:01.730Z,9.40
2019-03-29T07:44:31.627Z,8.53
2019-03-29T07:47:01.543Z,10.73
2019-03-29T07:49:31.462Z,9.60
2019-03-29T07:52:01.342Z,9.80
2019-03-29T07:54:31.246Z,9.30
2019-03-29T07:57:01.130Z,9.90
2019-03-29T07:59:31.036Z,7.90
2019-03-29T08:02:02.368Z,8.70
2019-03-29T08:04:32.427Z,7.97
2019-03-29T08:07:02.305Z,7.10
2019-03-29T08:09:32.209Z,7.20
2019-03-29T08:12:02.092Z,7.30
2019-03-29T08:14:31.995Z,4.83
2019-03-29T08:17:01.871Z,4.13
2019-03-29T08:19:31.771Z,3.73
2019-03-29T08:22:01.650Z,2.30
2019-03-29T08:24:31.562Z,2.20
2019-03-29T08:27:01.446Z,1.77
2019-03-29T08:29:31.595Z,3.80
2019-03-29T08:32:01.511Z,4.63
2019-03-29T08:34:31.410Z,4.00
2019-03-29T08:37:01.286Z,5.20
2019-03-29T08:39:31.180Z,5.33
2019-03-29T08:42:01.258Z,4.30
2019-03-29T08:44:31.141Z,4.40
2019-03-29T08:47:01.032Z,4.03
2019-03-29T08:49:30.903Z,4.10
2019-03-29T08:52:00.799Z,3.80
2019-03-29T08:54:30.683Z,3.33
2019-03-29T08:57:00.578Z,4.73
2019-03-29T08:59:30.458Z,4.10
2019-03-29T09:02:00.361Z,4.20
2019-03-29T09:04:30.222Z,3.73
2019-03-29T09:07:00.126Z,3.70
2019-03-29T09:09:30.847Z,3.53
2019-03-29T09:12:13.679Z,3.13
2019-03-29T09:14:32.566Z,3.93
2019-03-29T09:17:02.473Z,4.10
2019-03-29T09:19:32.340Z,4.40
2019-03-29T09:22:02.235Z,3.70
2019-03-29T09:24:32.136Z,3.83
2019-03-29T09:27:02.023Z,3.60
2019-03-29T09:29:31.899Z,3.97
2019-03-29T09:32:01.811Z,3.80
2019-03-29T09:34:31.684Z,3.60
2019-03-29T09:37:01.585Z,3.73
2019-03-29T09:39:31.455Z,3.40
2019-03-29T09:42:01.351Z,3.43
2019-03-29T09:44:31.229Z,4.10
2019-03-29T09:47:01.123Z,3.33
2019-03-29T09:49:31.007Z,4.03
2019-03-29T09:52:00.976Z,4.10
2019-03-29T09:54:30.848Z,3.47
2019-03-29T09:57:00.744Z,3.10
2019-03-29T09:59:30.610Z,3.20
2019-03-29T10:02:00.435Z,2.70
2019-03-29T10:04:30.307Z,3.50
2019-03-29T10:07:00.203Z,2.70
2019-03-29T10:09:30.080Z,2.97
2019-03-29T10:11:59.975Z,3.53
2019-03-29T10:14:33.142Z,3.27
2019-03-29T10:17:01.392Z,2.77
2019-03-29T10:19:31.259Z,3.30
2019-03-29T10:22:01.157Z,3.00
2019-03-29T10:24:31.051Z,3.37
2019-03-29T10:27:01.031Z,3.10
2019-03-29T10:29:30.910Z,3.23
2019-03-29T10:32:00.803Z,3.50
2019-03-29T10:34:30.688Z,2.80
2019-03-29T10:37:00.587Z,3.20
2019-03-29T10:39:30.471Z,3.27
2019-03-29T10:42:00.487Z,2.83
2019-03-29T10:44:30.367Z,3.40
2019-03-29T10:47:00.267Z,3.23
2019-03-29T10:49:30.159Z,2.70
2019-03-29T10:52:00.060Z,3.73
2019-03-29T10:54:29.939Z,2.43
2019-03-29T10:56:59.832Z,3.73
2019-03-29T10:59:29.707Z,3.07
2019-03-29T11:01:59.616Z,3.23
2019-03-29T11:04:31.934Z,3.97
2019-03-29T11:07:01.024Z,3.67
2019-03-29T11:09:30.904Z,3.70
2019-03-29T11:12:00.798Z,3.27
2019-03-29T11:14:30.677Z,3.50
2019-03-29T11:17:01.445Z,3.50
2019-03-29T11:19:31.326Z,3.30
2019-03-29T11:22:01.220Z,3.83
2019-03-29T11:24:31.117Z,3.30
2019-03-29T11:27:01.110Z,3.00
2019-03-29T11:29:30.986Z,3.10
2019-03-29T11:32:00.885Z,3.60
2019-03-29T11:34:30.790Z,3.30
2019-03-29T11:37:00.691Z,3.30
2019-03-29T11:39:30.563Z,3.10
2019-03-29T11:42:03.279Z,3.80
2019-03-29T11:44:32.002Z,3.40
2019-03-29T11:47:01.904Z,3.30
2019-03-29T11:49:31.779Z,2.63
2019-03-29T11:52:01.689Z,2.37
2019-03-29T11:54:31.579Z,2.67
2019-03-29T11:57:01.530Z,3.03
2019-03-29T11:59:31.441Z,3.10
2019-03-29T12:02:01.302Z,3.73
2019-03-29T12:04:31.195Z,3.10
2019-03-29T12:07:03.590Z,3.60
2019-03-29T12:09:32.621Z,3.23
2019-03-29T12:12:02.570Z,3.07
2019-03-29T12:14:32.440Z,2.90
2019-03-29T12:17:02.344Z,3.30
2019-03-29T12:19:32.632Z,2.70
2019-03-29T12:22:02.498Z,3.27
2019-03-29T12:24:32.411Z,3.00
2019-03-29T12:27:02.278Z,2.27
2019-03-29T12:29:32.240Z,3.73
2019-03-29T12:32:02.055Z,3.30
2019-03-29T12:34:31.951Z,3.50
2019-03-29T12:37:01.824Z,3.20
2019-03-29T12:39:31.724Z,3.60
2019-03-29T12:42:01.583Z,4.20
2019-03-29T12:44:31.475Z,4.03
2019-03-29T12:47:01.347Z,3.43
2019-03-29T12:49:31.246Z,4.10
2019-03-29T12:52:01.119Z,4.00
2019-03-29T12:54:31.020Z,3.20
2019-03-29T12:57:00.994Z,3.27
2019-03-29T12:59:32.877Z,3.57
2019-03-29T13:02:02.422Z,3.93
2019-03-29T13:04:32.315Z,3.20
2019-03-29T13:07:02.191Z,3.43
2019-03-29T13:09:32.096Z,3.57
2019-03-29T13:12:01.972Z,3.57
2019-03-29T13:14:31.880Z,3.27
2019-03-29T13:17:02.885Z,3.10
2019-03-29T13:19:32.975Z,4.03
2019-03-29T13:22:02.845Z,3.77
2019-03-29T13:24:32.804Z,4.00
2019-03-29T13:27:02.719Z,4.10
2019-03-29T13:29:32.632Z,3.60
2019-03-29T13:32:02.508Z,4.17
2019-03-29T13:34:32.411Z,3.77
2019-03-29T13:37:02.283Z,3.50
2019-03-29T13:39:32.172Z,3.60
2019-03-29T13:42:02.064Z,3.90
2019-03-29T13:44:31.946Z,4.20
2019-03-29T13:47:01.847Z,4.37
2019-03-29T13:49:31.715Z,3.37
2019-03-29T13:52:01.615Z,4.17
2019-03-29T13:54:31.484Z,2.20
2019-03-29T13:57:01.378Z,2.50
2019-03-29T13:59:31.893Z,3.40
2019-03-29T14:02:01.955Z,2.57
2019-03-29T14:04:31.829Z,3.17
2019-03-29T14:07:01.724Z,3.17
2019-03-29T14:09:31.604Z,3.67
2019-03-29T14:12:01.521Z,4.07
2019-03-29T14:14:38.141Z,3.73
2019-03-29T14:17:03.452Z,3.40
2019-03-29T14:19:33.334Z,3.77
2019-03-29T14:22:03.227Z,2.60
2019-03-29T14:24:33.118Z,2.63
2019-03-29T14:27:03.014Z,2.90
2019-03-29T14:29:32.895Z,2.73
2019-03-29T14:32:02.792Z,3.93
2019-03-29T14:34:32.663Z,3.90
2019-03-29T14:37:02.588Z,2.73
2019-03-29T14:39:32.457Z,2.80
2019-03-29T14:42:02.352Z,2.87
2019-03-29T14:44:32.223Z,3.50
2019-03-29T14:47:02.125Z,2.90
2019-03-29T14:49:31.991Z,4.20
2019-03-29T14:52:01.895Z,3.13
2019-03-29T14:54:31.772Z,3.60
2019-03-29T14:57:01.664Z,3.40
2019-03-29T14:59:31.545Z,2.97
2019-03-29T15:02:01.437Z,3.77
2019-03-29T15:04:31.311Z,4.30
2019-03-29T15:07:01.210Z,3.27
2019-03-29T15:09:31.199Z,3.73
2019-03-29T15:12:01.087Z,3.10
2019-03-29T15:14:30.959Z,3.37
2019-03-29T15:17:00.859Z,3.70
2019-03-29T15:19:30.745Z,3.80
2019-03-29T15:22:00.647Z,3.83
2019-03-29T15:24:30.555Z,3.27
2019-03-29T15:27:00.452Z,3.63
2019-03-29T15:29:30.333Z,3.43
2019-03-29T15:32:00.227Z,3.50
2019-03-29T15:34:30.116Z,2.63
2019-03-29T15:37:00.008Z,3.60
2019-03-29T15:39:29.883Z,3.60
2019-03-29T15:41:59.775Z,4.33
2019-03-29T15:44:29.654Z,3.40
2019-03-29T15:46:59.545Z,4.33
2019-03-29T15:49:29.462Z,4.37
2019-03-29T15:51:59.357Z,4.43
2019-03-29T15:54:29.236Z,4.60
2019-03-29T15:56:59.135Z,4.27
2019-03-29T15:59:29.011Z,4.80
2019-03-29T16:01:58.918Z,4.97
2019-03-29T16:04:28.795Z,4.37
2019-03-29T16:06:58.697Z,5.37
2019-03-29T16:09:28.639Z,4.00
2019-03-29T16:11:58.540Z,3.77
2019-03-29T16:14:28.417Z,3.63
2019-03-29T16:16:58.337Z,4.00
2019-03-29T16:19:28.207Z,3.90
2019-03-29T16:21:58.110Z,3.27
2019-03-29T16:24:28.003Z,3.90
2019-03-29T16:26:57.899Z,4.70
2019-03-29T16:29:27.775Z,5.00
2019-03-29T16:31:57.682Z,3.87
2019-03-29T16:34:27.558Z,4.27
2019-03-29T16:36:57.449Z,5.37
2019-03-29T16:39:27.323Z,4.87
2019-03-29T16:41:57.199Z,5.27
2019-03-29T16:44:27.098Z,4.37
2019-03-29T16:46:56.969Z,3.40
2019-03-29T16:49:26.866Z,5.10
2019-03-29T16:51:56.740Z,4.87
2019-03-29T16:54:26.645Z,4.70
2019-03-29T16:56:56.503Z,5.07
2019-03-29T16:59:26.403Z,4.70
2019-03-29T17:01:56.263Z,4.50
2019-03-29T17:04:26.168Z,4.27
2019-03-29T17:06:56.027Z,3.60
2019-03-29T17:09:25.928Z,3.37
2019-03-29T17:11:55.815Z,3.50
2019-03-29T17:14:25.709Z,2.70
2019-03-29T17:16:55.611Z,3.43
2019-03-29T17:19:25.503Z,4.33
2019-03-29T17:21:55.431Z,4.17
2019-03-29T17:24:25.386Z,2.73
2019-03-29T17:26:55.262Z,2.83
2019-03-29T17:29:25.158Z,2.27
2019-03-29T17:31:55.032Z,2.33
2019-03-29T17:34:24.955Z,2.17
2019-03-29T17:36:54.831Z,2.73
2019-03-29T17:39:24.732Z,1.90
2019-03-29T17:41:54.603Z,2.40
2019-03-29T17:44:24.495Z,1.80
2019-03-29T17:46:54.419Z,2.53
2019-03-29T17:49:24.311Z,2.80
2019-03-29T17:51:54.182Z,2.57
2019-03-29T17:54:24.084Z,2.53
2019-03-29T17:56:53.951Z,2.63
2019-03-29T17:59:23.835Z,2.70
2019-03-29T18:01:53.712Z,2.30
2019-03-29T18:04:23.590Z,2.90
2019-03-29T18:06:53.483Z,3.50
2019-03-29T18:09:23.363Z,3.23
2019-03-29T18:11:53.263Z,3.50
2019-03-29T18:14:23.127Z,2.70
2019-03-29T18:16:53.026Z,2.87
2019-03-29T18:19:22.895Z,2.70
2019-03-29T18:21:52.795Z,2.70
2019-03-29T18:24:22.690Z,2.50
2019-03-29T18:26:52.595Z,2.80
2019-03-29T18:29:22.475Z,2.97
2019-03-29T18:31:52.762Z,3.10
2019-03-29T18:34:22.739Z,2.27
2019-03-29T18:36:54.902Z,2.43
2019-03-29T18:39:25.092Z,3.50
2019-03-29T18:41:54.984Z,3.30
2019-03-29T18:44:24.859Z,3.10
2019-03-29T18:46:54.755Z,2.43
2019-03-29T18:49:24.628Z,2.87
2019-03-29T18:51:54.555Z,2.83
2019-03-29T18:54:24.432Z,2.90
2019-03-29T18:56:54.320Z,3.20
2019-03-29T18:59:24.192Z,3.37
2019-03-29T19:01:54.083Z,3.17
2019-03-29T19:04:23.954Z,2.80
2019-03-29T19:06:53.839Z,3.20
2019-03-29T19:09:23.712Z,3.33
2019-03-29T19:11:53.599Z,3.13
2019-03-29T19:14:23.462Z,3.03
2019-03-29T19:16:59.092Z,3.17
2019-03-29T19:19:24.883Z,4.10
2019-03-29T19:21:54.806Z,3.33
2019-03-29T19:24:24.715Z,3.40
2019-03-29T19:26:54.607Z,2.90
2019-03-29T19:29:24.530Z,3.47
2019-03-29T19:31:56.134Z,3.00
2019-03-29T19:34:26.160Z,3.10
2019-03-29T19:36:56.058Z,2.50
2019-03-29T19:39:25.942Z,3.07
2019-03-29T19:41:55.829Z,3.47
2019-03-29T19:44:25.687Z,3.50
2019-03-29T19:46:55.575Z,3.33
2019-03-29T19:49:25.451Z,3.27
2019-03-29T19:51:55.339Z,4.17
2019-03-29T19:54:25.226Z,3.63
2019-03-29T19:56:55.140Z,3.50
2019-03-29T19:59:24.988Z,4.20
2019-03-29T20:01:54.907Z,3.20
2019-03-29T20:04:24.774Z,3.20
2019-03-29T20:06:54.668Z,2.87
2019-03-29T20:09:24.543Z,3.40
2019-03-29T20:11:54.430Z,3.13
2019-03-29T20:14:24.312Z,3.63
2019-03-29T20:16:55.365Z,2.80
2019-03-29T20:19:25.375Z,3.43
2019-03-29T20:21:55.327Z,2.70
2019-03-29T20:24:25.223Z,3.10
2019-03-29T20:26:55.108Z,3.57
2019-03-29T20:29:24.979Z,2.67
2019-03-29T20:31:54.876Z,3.00
2019-03-29T20:34:24.743Z,3.00
2019-03-29T20:36:54.631Z,3.20
2019-03-29T20:39:24.500Z,2.90
2019-03-29T20:41:54.403Z,3.40
2019-03-29T20:44:24.276Z,4.23
2019-03-29T20:46:54.167Z,4.20
2019-03-29T20:49:24.043Z,3.53
2019-03-29T20:51:53.942Z,3.17
2019-03-29T20:54:23.810Z,3.70
2019-03-29T20:56:53.712Z,3.40
2019-03-29T20:59:23.578Z,3.20
2019-03-29T21:01:53.474Z,3.40
2019-03-29T21:04:23.343Z,3.30
2019-03-29T21:06:53.260Z,3.40
2019-03-29T21:09:23.131Z,3.33
2019-03-29T21:11:53.003Z,3.60
2019-03-29T21:14:22.904Z,3.50
2019-03-29T21:16:52.791Z,3.13
2019-03-29T21:19:22.689Z,2.60
2019-03-29T21:21:52.573Z,2.80
2019-03-29T21:24:22.474Z,4.20
2019-03-29T21:26:52.412Z,3.80
2019-03-29T21:29:22.311Z,4.20
2019-03-29T21:31:52.183Z,5.50
2019-03-29T21:34:22.079Z,5.00
2019-03-29T21:36:51.964Z,4.70
2019-03-29T21:39:21.863Z,5.17
2019-03-29T21:41:51.736Z,3.97
2019-03-29T21:44:21.630Z,4.37
2019-03-29T21:46:51.503Z,3.90
2019-03-29T21:49:21.395Z,5.10
2019-03-29T21:51:51.270Z,3.97
2019-03-29T21:54:21.178Z,5.27
2019-03-29T21:56:51.055Z,4.53
2019-03-29T21:59:20.959Z,4.40
2019-03-29T22:01:50.826Z,4.30
2019-03-29T22:04:20.726Z,4.00
2019-03-29T22:06:50.590Z,4.90
2019-03-29T22:09:20.479Z,4.33
2019-03-29T22:11:50.366Z,4.20
2019-03-29T22:14:20.246Z,4.80
2019-03-29T22:16:50.148Z,5.53
2019-03-29T22:19:20.043Z,4.90
2019-03-29T22:21:49.919Z,4.70
2019-03-29T22:24:19.926Z,4.30
2019-03-29T22:26:49.806Z,4.50
2019-03-29T22:29:19.706Z,5.10
2019-03-29T22:31:49.580Z,4.60
2019-03-29T22:34:19.474Z,4.50
2019-03-29T22:36:49.360Z,4.00
2019-03-29T22:39:19.251Z,4.27
2019-03-29T22:41:49.118Z,3.40
2019-03-29T22:44:19.007Z,4.30
2019-03-29T22:46:48.884Z,4.10
2019-03-29T22:49:18.780Z,4.10
2019-03-29T22:51:48.650Z,4.60
2019-03-29T22:54:18.546Z,3.50
2019-03-29T22:56:48.411Z,4.87
2019-03-29T22:59:18.315Z,4.33
2019-03-29T23:01:48.707Z,4.20
2019-03-29T23:04:18.610Z,4.13
2019-03-29T23:06:48.479Z,5.00
2019-03-29T23:09:18.372Z,4.17
2019-03-29T23:11:48.243Z,3.97
2019-03-29T23:14:18.143Z,4.90
2019-03-29T23:16:48.014Z,4.20
2019-03-29T23:19:17.911Z,3.93
2019-03-29T23:21:47.791Z,3.20
2019-03-29T23:24:17.725Z,5.10
2019-03-29T23:26:47.613Z,3.57
2019-03-29T23:29:17.479Z,3.70
2019-03-29T23:31:47.455Z,4.30
2019-03-29T23:34:17.339Z,3.30
2019-03-29T23:36:47.241Z,3.70
2019-03-29T23:39:17.119Z,4.70
2019-03-29T23:41:47.193Z,4.20
2019-03-29T23:44:17.090Z,3.47
2019-03-29T23:46:47.195Z,4.40
2019-03-29T23:49:21.221Z,3.97
2019-03-29T23:51:48.698Z,5.40
2019-03-29T23:54:18.608Z,3.47
2019-03-29T23:56:48.510Z,4.33
2019-03-29T23:59:18.383Z,5.50
